createdAt,value
2022-10-08T00:01:53.281Z,97926.88
2022-10-08T00:04:19.895Z,97921.16
2022-10-08T00:06:46.424Z,97921.34
2022-10-08T00:09:13.015Z,97920.91
2022-10-08T00:11:40.732Z,97924.97
2022-10-08T00:14:08.310Z,97929.00
2022-10-08T00:16:38.672Z,97916.88
2022-10-08T00:19:08.577Z,97910.13
2022-10-08T00:21:38.325Z,97916.63
2022-10-08T00:24:06.715Z,97917.16
2022-10-08T00:26:38.542Z,97914.53
2022-10-08T00:29:09.747Z,97915.09
2022-10-08T00:31:40.937Z,97920.13
2022-10-08T00:34:11.204Z,97908.44
2022-10-08T00:36:39.764Z,97912.69
2022-10-08T00:39:11.319Z,97907.63
2022-10-08T00:41:38.610Z,97903.34
2022-10-08T00:44:42.352Z,97899.56
2022-10-08T00:47:20.230Z,97910.81
2022-10-08T00:49:49.247Z,97922.09
2022-10-08T00:52:17.296Z,97906.34
2022-10-08T00:54:44.909Z,97908.19
2022-10-08T00:57:11.983Z,97910.56
2022-10-08T00:59:39.121Z,97910.75
2022-10-08T01:02:08.456Z,97909.31
2022-10-08T01:04:37.648Z,97905.13
2022-10-08T01:07:07.015Z,97903.13
2022-10-08T01:09:53.322Z,97897.78
2022-10-08T01:12:25.786Z,97890.78
2022-10-08T01:14:57.789Z,97889.72
2022-10-08T01:17:33.439Z,97892.09
2022-10-08T01:20:30.425Z,97885.00
2022-10-08T01:23:30.184Z,97877.97
2022-10-08T01:26:17.153Z,97876.06
2022-10-08T01:28:51.568Z,97872.78
2022-10-08T01:31:23.971Z,97884.25
2022-10-08T01:33:54.479Z,97878.59
2022-10-08T01:36:23.581Z,97878.03
2022-10-08T01:39:00.486Z,97876.78
2022-10-08T01:41:31.198Z,97878.22
2022-10-08T01:44:09.782Z,97865.34
2022-10-08T01:46:41.045Z,97871.81
2022-10-08T01:49:12.675Z,97872.63
2022-10-08T01:51:51.402Z,97872.66
2022-10-08T01:54:19.592Z,97863.28
2022-10-08T01:56:48.929Z,97864.84
2022-10-08T01:59:20.589Z,97864.31
2022-10-08T02:01:53.339Z,97858.00
2022-10-08T02:04:37.230Z,97859.72
2022-10-08T02:07:30.067Z,97867.63
2022-10-08T02:10:13.652Z,97870.84
2022-10-08T02:12:40.606Z,97870.38
2022-10-08T02:15:21.308Z,97873.34
2022-10-08T02:17:58.840Z,97876.88
2022-10-08T02:20:36.818Z,97879.75
2022-10-08T02:23:13.502Z,97871.69
2022-10-08T02:25:58.678Z,97874.94
2022-10-08T02:28:40.275Z,97873.34
2022-10-08T02:31:17.962Z,97872.41
2022-10-08T02:33:51.616Z,97870.75
2022-10-08T02:36:22.487Z,97871.03
2022-10-08T02:38:56.342Z,97867.00
2022-10-08T02:41:30.407Z,97860.69
2022-10-08T02:44:00.498Z,97860.41
2022-10-08T02:46:31.692Z,97867.38
2022-10-08T02:49:10.751Z,97865.16
2022-10-08T02:51:41.525Z,97860.50
2022-10-08T02:54:09.341Z,97852.97
2022-10-08T02:56:57.034Z,97851.56
2022-10-08T02:59:25.220Z,97852.47
2022-10-08T03:02:00.562Z,97857.41
2022-10-08T03:04:45.703Z,97850.22
2022-10-08T03:07:13.703Z,97858.75
2022-10-08T03:09:44.060Z,97864.53
2022-10-08T03:12:10.789Z,97858.16
2022-10-08T03:14:43.777Z,97857.88
2022-10-08T03:17:14.307Z,97862.94
2022-10-08T03:19:40.856Z,97866.16
2022-10-08T03:22:08.085Z,97858.41
2022-10-08T03:24:35.955Z,97863.88
2022-10-08T03:27:02.891Z,97869.47
2022-10-08T03:29:29.460Z,97862.66
2022-10-08T03:31:55.991Z,97858.50
2022-10-08T03:34:25.038Z,97864.84
2022-10-08T03:36:51.595Z,97870.28
2022-10-08T03:39:18.236Z,97865.53
2022-10-08T03:41:44.760Z,97863.25
2022-10-08T03:44:12.452Z,97863.66
2022-10-08T03:46:39.170Z,97861.31
2022-10-08T03:49:05.748Z,97857.28
2022-10-08T03:51:32.386Z,97855.84
2022-10-08T03:53:58.944Z,97858.41
2022-10-08T03:56:25.540Z,97856.16
2022-10-08T03:58:54.819Z,97862.03
2022-10-08T04:01:21.799Z,97861.78
2022-10-08T04:03:48.508Z,97852.69
2022-10-08T04:06:15.608Z,97858.34
2022-10-08T04:08:42.247Z,97863.31
2022-10-08T04:11:13.855Z,97868.25
2022-10-08T04:13:40.889Z,97869.31
2022-10-08T04:16:13.474Z,97873.22
2022-10-08T04:18:40.672Z,97868.50
2022-10-08T04:21:09.328Z,97866.91
2022-10-08T04:23:38.156Z,97867.03
2022-10-08T04:26:05.556Z,97869.47
2022-10-08T04:28:36.199Z,97866.53
2022-10-08T04:31:07.838Z,97869.69
2022-10-08T04:33:35.369Z,97867.75
2022-10-08T04:36:01.774Z,97869.47
2022-10-08T04:38:28.907Z,97865.06
2022-10-08T04:41:06.582Z,97868.28
2022-10-08T04:43:34.127Z,97870.19
2022-10-08T04:46:00.799Z,97872.50
2022-10-08T04:48:27.650Z,97874.09
2022-10-08T04:50:58.936Z,97869.69
2022-10-08T04:53:28.631Z,97874.19
2022-10-08T04:55:56.064Z,97873.94
2022-10-08T04:58:23.409Z,97876.47
2022-10-08T05:00:49.967Z,97876.53
2022-10-08T05:03:16.553Z,97870.97
2022-10-08T05:05:45.791Z,97868.91
2022-10-08T05:08:12.909Z,97878.41
2022-10-08T05:10:39.662Z,97874.03
2022-10-08T05:13:06.183Z,97876.94
2022-10-08T05:15:35.251Z,97873.84
2022-10-08T05:18:01.920Z,97878.63
2022-10-08T05:20:28.445Z,97881.47
2022-10-08T05:22:54.975Z,97898.53
2022-10-08T05:25:21.543Z,97891.28
2022-10-08T05:27:48.068Z,97895.44
2022-10-08T05:30:17.517Z,97892.91
2022-10-08T05:32:47.946Z,97899.78
2022-10-08T05:35:14.827Z,97894.28
2022-10-08T05:37:41.385Z,97900.56
2022-10-08T05:40:08.193Z,97898.16
2022-10-08T05:42:34.777Z,97892.19
2022-10-08T05:45:01.326Z,97896.84
2022-10-08T05:47:27.868Z,97898.34
2022-10-08T05:49:54.390Z,97894.69
2022-10-08T05:52:20.918Z,97899.91
2022-10-08T05:54:47.460Z,97896.19
2022-10-08T05:57:14.063Z,97896.31
2022-10-08T05:59:40.619Z,97898.66
2022-10-08T06:02:07.231Z,97882.00
2022-10-08T06:04:33.778Z,97890.88
2022-10-08T06:07:00.354Z,97884.97
2022-10-08T06:09:26.904Z,97882.63
2022-10-08T06:11:53.592Z,97883.16
2022-10-08T06:14:20.559Z,97880.56
2022-10-08T06:16:47.197Z,97882.59
2022-10-08T06:19:14.146Z,97878.31
2022-10-08T06:21:41.193Z,97874.25
2022-10-08T06:24:10.402Z,97873.72
2022-10-08T06:26:39.357Z,97867.78
2022-10-08T06:29:07.162Z,97866.25
2022-10-08T06:31:35.626Z,97871.00
2022-10-08T06:34:05.237Z,97865.03
2022-10-08T06:36:33.567Z,97858.13
2022-10-08T06:39:02.670Z,97867.41
2022-10-08T06:41:35.478Z,97861.28
2022-10-08T06:44:04.267Z,97869.13
2022-10-08T06:46:32.470Z,97857.63
2022-10-08T06:49:00.790Z,97856.06
2022-10-08T06:51:28.459Z,97857.53
2022-10-08T06:53:59.402Z,97852.13
2022-10-08T06:56:29.080Z,97846.28
2022-10-08T06:58:55.658Z,97845.47
2022-10-08T07:01:31.858Z,97847.59
2022-10-08T07:04:00.844Z,97856.25
2022-10-08T07:06:28.318Z,97848.81
2022-10-08T07:08:55.978Z,97843.91
2022-10-08T07:11:23.197Z,97841.09
2022-10-08T07:13:49.778Z,97848.28
2022-10-08T07:16:21.635Z,97848.34
2022-10-08T07:18:50.428Z,97845.28
2022-10-08T07:21:19.043Z,97846.16
2022-10-08T07:23:45.786Z,97850.69
2022-10-08T07:26:13.572Z,97844.13
2022-10-08T07:28:48.333Z,97841.91
2022-10-08T07:31:18.525Z,97842.50
2022-10-08T07:33:45.094Z,97839.97
2022-10-08T07:36:20.112Z,97831.34
2022-10-08T07:38:48.143Z,97824.28
2022-10-08T07:41:15.137Z,97830.75
2022-10-08T07:43:41.750Z,97823.34
2022-10-08T07:46:09.710Z,97827.47
2022-10-08T07:48:36.682Z,97822.38
2022-10-08T07:51:16.306Z,97822.72
2022-10-08T07:53:43.611Z,97824.66
2022-10-08T07:56:11.935Z,97816.94
2022-10-08T07:58:39.422Z,97822.03
2022-10-08T08:01:08.830Z,97812.53
2022-10-08T08:03:35.884Z,97794.56
2022-10-08T08:06:03.573Z,97792.66
2022-10-08T08:08:30.413Z,97788.88
2022-10-08T08:11:01.408Z,97789.28
2022-10-08T08:13:31.877Z,97772.88
2022-10-08T08:16:08.699Z,97768.88
2022-10-08T08:18:37.906Z,97763.44
2022-10-08T08:21:13.536Z,97754.66
2022-10-08T08:23:42.968Z,97747.47
2022-10-08T08:26:16.033Z,97743.97
2022-10-08T08:28:43.033Z,97749.19
2022-10-08T08:31:18.882Z,97739.63
2022-10-08T08:33:54.234Z,97736.34
2022-10-08T08:36:24.628Z,97745.22
2022-10-08T08:38:51.200Z,97740.91
2022-10-08T08:41:27.228Z,97749.94
2022-10-08T08:44:08.639Z,97735.25
2022-10-08T08:46:42.239Z,97735.25
2022-10-08T08:49:25.975Z,97738.50
2022-10-08T08:51:53.477Z,97733.00
2022-10-08T08:54:21.091Z,97728.66
2022-10-08T08:56:48.779Z,97727.88
2022-10-08T08:59:25.563Z,97736.22
2022-10-08T09:01:58.166Z,97734.13
2022-10-08T09:04:33.587Z,97738.50
2022-10-08T09:07:03.931Z,97731.16
2022-10-08T09:09:42.860Z,97732.19
2022-10-08T09:12:35.109Z,97732.59
2022-10-08T09:15:02.965Z,97746.94
2022-10-08T09:17:39.001Z,97747.06
2022-10-08T09:20:06.000Z,97752.53
2022-10-08T09:22:40.627Z,97740.31
2022-10-08T09:25:15.394Z,97731.34
2022-10-08T09:27:53.307Z,97730.78
2022-10-08T09:30:35.277Z,97722.66
2022-10-08T09:33:32.146Z,97720.25
2022-10-08T09:35:59.505Z,97714.66
2022-10-08T09:38:36.024Z,97707.94
2022-10-08T09:41:17.500Z,97701.28
2022-10-08T09:43:45.592Z,97699.44
2022-10-08T09:46:30.868Z,97699.19
2022-10-08T09:49:19.391Z,97693.31
2022-10-08T09:51:46.076Z,97696.16
2022-10-08T09:54:17.020Z,97692.03
2022-10-08T09:56:53.214Z,97689.44
2022-10-08T09:59:22.865Z,97690.22
2022-10-08T10:01:49.729Z,97692.50
2022-10-08T10:04:37.650Z,97679.00
2022-10-08T10:07:05.504Z,97675.06
2022-10-08T10:09:47.887Z,97671.13
2022-10-08T10:12:19.886Z,97661.47
2022-10-08T10:15:09.642Z,97657.91
2022-10-08T10:17:54.146Z,97658.50
2022-10-08T10:20:27.454Z,97651.22
2022-10-08T10:22:59.117Z,97651.75
2022-10-08T10:25:38.347Z,97641.53
2022-10-08T10:28:13.561Z,97637.59
2022-10-08T10:30:52.200Z,97625.34
2022-10-08T10:33:27.733Z,97624.28
2022-10-08T10:35:59.355Z,97616.97
2022-10-08T10:38:28.950Z,97609.00
2022-10-08T10:41:01.379Z,97604.25
2022-10-08T10:43:43.026Z,97607.41
2022-10-08T10:46:31.882Z,97606.56
2022-10-08T10:48:59.543Z,97602.06
2022-10-08T10:51:46.644Z,97600.84
2022-10-08T10:54:41.859Z,97589.94
2022-10-08T10:57:35.089Z,97588.06
2022-10-08T11:00:04.407Z,97586.59
2022-10-08T11:02:50.161Z,97568.44
2022-10-08T11:05:25.173Z,97559.22
2022-10-08T11:08:27.039Z,97557.88
2022-10-08T11:11:05.624Z,97562.16
2022-10-08T11:13:35.157Z,97553.69
2022-10-08T11:16:33.077Z,97554.81
2022-10-08T11:19:03.190Z,97548.25
2022-10-08T11:21:48.525Z,97537.09
2022-10-08T11:24:39.765Z,97528.03
2022-10-08T11:27:38.473Z,97521.56
2022-10-08T11:30:41.320Z,97523.22
2022-10-08T11:33:13.099Z,97519.66
2022-10-08T11:35:58.341Z,97513.69
2022-10-08T11:38:48.580Z,97504.88
2022-10-08T11:41:24.682Z,97504.47
2022-10-08T11:43:58.716Z,97498.88
2022-10-08T11:46:30.705Z,97496.25
2022-10-08T11:49:02.418Z,97492.69
2022-10-08T11:51:34.872Z,97490.28
2022-10-08T11:54:15.317Z,97483.16
2022-10-08T11:56:47.998Z,97482.28
2022-10-08T11:59:26.619Z,97473.13
2022-10-08T12:02:02.820Z,97463.97
2022-10-08T12:04:37.590Z,97465.53
2022-10-08T12:07:26.199Z,97451.25
2022-10-08T12:10:21.324Z,97456.91
2022-10-08T12:12:50.775Z,97446.69
2022-10-08T12:15:23.711Z,97444.38
2022-10-08T12:17:59.056Z,97440.50
2022-10-08T12:20:34.135Z,97442.56
2022-10-08T12:23:10.909Z,97431.84
2022-10-08T12:25:39.411Z,97434.09
2022-10-08T12:28:21.067Z,97436.50
2022-10-08T12:30:56.058Z,97420.38
2022-10-08T12:33:24.729Z,97423.34
2022-10-08T12:36:09.898Z,97421.69
2022-10-08T12:38:46.199Z,97421.56
2022-10-08T12:41:24.425Z,97408.75
2022-10-08T12:44:01.577Z,97410.13
2022-10-08T12:46:50.822Z,97408.13
2022-10-08T12:49:38.456Z,97397.72
2022-10-08T12:52:14.631Z,97405.78
2022-10-08T12:54:49.405Z,97402.38
2022-10-08T12:57:22.439Z,97396.53
2022-10-08T12:59:50.550Z,97397.31
2022-10-08T13:02:32.347Z,97388.59
2022-10-08T13:04:58.901Z,97383.03
2022-10-08T13:07:28.545Z,97388.19
2022-10-08T13:09:57.577Z,97384.19
2022-10-08T13:12:24.515Z,97373.00
2022-10-08T13:15:08.718Z,97382.94
2022-10-08T13:17:36.808Z,97382.94
2022-10-08T13:20:23.604Z,97378.91
2022-10-08T13:22:50.179Z,97377.50
2022-10-08T13:25:41.253Z,97372.34
2022-10-08T13:28:41.835Z,97369.84
2022-10-08T13:31:24.872Z,97355.94
2022-10-08T13:33:51.824Z,97361.28
2022-10-08T13:36:23.365Z,97361.03
2022-10-08T13:38:50.099Z,97364.13
2022-10-08T13:41:23.894Z,97363.50
2022-10-08T13:43:50.752Z,97365.03
2022-10-08T13:46:17.345Z,97366.19
2022-10-08T13:48:44.678Z,97362.41
2022-10-08T13:51:11.319Z,97355.50
2022-10-08T13:53:37.903Z,97350.44
2022-10-08T13:56:05.709Z,97342.50
2022-10-08T13:58:32.811Z,97345.22
2022-10-08T14:00:59.360Z,97347.00
2022-10-08T14:03:25.929Z,97346.69
2022-10-08T14:05:52.550Z,97338.19
2022-10-08T14:08:25.407Z,97344.50
2022-10-08T14:10:58.136Z,97340.56
2022-10-08T14:13:25.661Z,97334.91
2022-10-08T14:15:52.340Z,97339.41
2022-10-08T14:18:18.957Z,97332.75
2022-10-08T14:20:45.872Z,97329.97
2022-10-08T14:23:13.552Z,97334.13
2022-10-08T14:25:40.171Z,97328.97
2022-10-08T14:28:08.792Z,97323.16
2022-10-08T14:30:36.433Z,97330.56
2022-10-08T14:33:04.757Z,97328.72
2022-10-08T14:35:34.274Z,97322.94
2022-10-08T14:38:00.778Z,97325.34
2022-10-08T14:40:27.375Z,97324.53
2022-10-08T14:42:53.957Z,97328.56
2022-10-08T14:45:20.697Z,97329.97
2022-10-08T14:47:47.416Z,97328.63
2022-10-08T14:50:14.295Z,97329.22
2022-10-08T14:52:44.582Z,97324.16
2022-10-08T14:55:11.934Z,97326.13
2022-10-08T14:57:38.511Z,97321.06
2022-10-08T15:00:06.633Z,97320.34
2022-10-08T15:02:34.492Z,97318.56
2022-10-08T15:05:01.837Z,97322.22
2022-10-08T15:07:28.736Z,97324.31
2022-10-08T15:09:55.336Z,97336.22
2022-10-08T15:12:21.885Z,97336.47
2022-10-08T15:14:48.493Z,97334.09
2022-10-08T15:17:15.021Z,97327.00
2022-10-08T15:19:41.546Z,97326.16
2022-10-08T15:22:08.114Z,97334.13
2022-10-08T15:24:34.707Z,97337.47
2022-10-08T15:27:01.339Z,97335.13
2022-10-08T15:29:27.924Z,97337.84
2022-10-08T15:31:54.524Z,97338.97
2022-10-08T15:34:21.508Z,97346.50
2022-10-08T15:36:48.199Z,97344.44
2022-10-08T15:39:20.216Z,97346.09
2022-10-08T15:41:49.442Z,97339.09
2022-10-08T15:44:18.798Z,97341.50
2022-10-08T15:46:46.335Z,97342.03
2022-10-08T15:49:13.567Z,97342.94
2022-10-08T15:51:40.264Z,97343.66
2022-10-08T15:54:07.327Z,97353.84
2022-10-08T15:56:34.351Z,97351.09
2022-10-08T15:59:02.286Z,97351.72
2022-10-08T16:01:29.834Z,97349.44
2022-10-08T16:03:57.727Z,97358.16
2022-10-08T16:06:32.211Z,97360.25
2022-10-08T16:08:59.610Z,97366.50
2022-10-08T16:11:27.481Z,97366.50
2022-10-08T16:13:58.574Z,97366.91
2022-10-08T16:16:25.209Z,97372.69
2022-10-08T16:18:57.612Z,97371.22
2022-10-08T16:21:24.695Z,97379.34
2022-10-08T16:23:51.268Z,97383.25
2022-10-08T16:26:22.460Z,97389.81
2022-10-08T16:28:51.435Z,97386.19
2022-10-08T16:31:18.942Z,97387.63
2022-10-08T16:33:46.254Z,97388.25
2022-10-08T16:36:14.641Z,97395.75
2022-10-08T16:38:41.666Z,97386.75
2022-10-08T16:41:17.443Z,97393.28
2022-10-08T16:43:49.412Z,97389.44
2022-10-08T16:46:36.511Z,97396.31
2022-10-08T16:49:13.814Z,97400.69
2022-10-08T16:51:40.852Z,97410.75
2022-10-08T16:54:10.771Z,97405.75
2022-10-08T16:56:39.134Z,97408.59
2022-10-08T16:59:08.573Z,97412.31
2022-10-08T17:01:38.327Z,97421.97
2022-10-08T17:04:06.802Z,97422.41
2022-10-08T17:06:34.256Z,97413.03
2022-10-08T17:09:00.666Z,97420.97
2022-10-08T17:11:27.267Z,97423.00
2022-10-08T17:13:56.210Z,97426.94
2022-10-08T17:16:24.780Z,97427.16
2022-10-08T17:18:53.118Z,97422.66
2022-10-08T17:21:20.480Z,97419.91
2022-10-08T17:23:47.477Z,97438.16
2022-10-08T17:26:17.671Z,97430.06
2022-10-08T17:28:45.900Z,97431.28
2022-10-08T17:31:15.883Z,97427.50
2022-10-08T17:33:43.116Z,97433.28
2022-10-08T17:36:14.270Z,97436.28
2022-10-08T17:38:42.784Z,97438.31
2022-10-08T17:41:24.492Z,97442.66
2022-10-08T17:43:51.792Z,97446.09
2022-10-08T17:46:21.647Z,97448.59
2022-10-08T17:48:48.443Z,97445.16
2022-10-08T17:51:20.120Z,97450.13
2022-10-08T17:53:56.050Z,97450.75
2022-10-08T17:56:23.962Z,97461.44
2022-10-08T17:58:51.014Z,97451.13
2022-10-08T18:01:26.889Z,97458.72
2022-10-08T18:03:55.152Z,97454.94
2022-10-08T18:06:22.715Z,97462.03
2022-10-08T18:08:53.708Z,97459.03
2022-10-08T18:11:20.255Z,97463.13
2022-10-08T18:13:46.842Z,97465.63
2022-10-08T18:16:15.769Z,97466.47
2022-10-08T18:18:43.613Z,97468.34
2022-10-08T18:21:15.260Z,97464.91
2022-10-08T18:23:42.949Z,97468.81
2022-10-08T18:26:10.908Z,97472.75
2022-10-08T18:28:38.316Z,97465.69
2022-10-08T18:31:06.272Z,97473.06
2022-10-08T18:33:33.989Z,97465.84
2022-10-08T18:36:14.917Z,97466.31
2022-10-08T18:38:43.130Z,97476.63
2022-10-08T18:41:17.184Z,97479.28
2022-10-08T18:43:45.354Z,97477.25
2022-10-08T18:46:13.891Z,97479.91
2022-10-08T18:48:40.616Z,97487.38
2022-10-08T18:51:19.968Z,97487.28
2022-10-08T18:53:46.592Z,97493.97
2022-10-08T18:56:19.954Z,97497.75
2022-10-08T18:58:47.185Z,97492.47
2022-10-08T19:01:22.772Z,97497.19
2022-10-08T19:03:51.778Z,97503.78
2022-10-08T19:06:20.603Z,97505.19
2022-10-08T19:08:47.424Z,97515.59
2022-10-08T19:11:19.372Z,97511.25
2022-10-08T19:13:46.512Z,97512.16
2022-10-08T19:16:13.860Z,97508.09
2022-10-08T19:18:44.115Z,97511.50
2022-10-08T19:21:13.135Z,97518.06
2022-10-08T19:23:39.921Z,97513.03
2022-10-08T19:26:06.608Z,97518.81
2022-10-08T19:28:36.985Z,97523.16
2022-10-08T19:31:17.282Z,97527.97
2022-10-08T19:33:51.432Z,97527.34
2022-10-08T19:36:19.275Z,97532.06
2022-10-08T19:38:59.682Z,97527.97
2022-10-08T19:41:27.383Z,97537.47
2022-10-08T19:43:55.673Z,97545.91
2022-10-08T19:46:23.379Z,97540.22
2022-10-08T19:48:51.218Z,97546.94
2022-10-08T19:51:18.759Z,97549.75
2022-10-08T19:53:47.117Z,97548.03
2022-10-08T19:56:14.330Z,97549.34
2022-10-08T19:58:47.589Z,97554.94
2022-10-08T20:01:18.215Z,97553.78
2022-10-08T20:03:45.406Z,97553.88
2022-10-08T20:06:24.005Z,97555.13
2022-10-08T20:08:54.579Z,97557.53
2022-10-08T20:11:22.254Z,97557.75
2022-10-08T20:13:50.667Z,97560.69
2022-10-08T20:16:23.728Z,97566.84
2022-10-08T20:18:59.570Z,97573.34
2022-10-08T20:21:27.835Z,97574.22
2022-10-08T20:23:54.776Z,97566.47
2022-10-08T20:26:21.235Z,97577.47
2022-10-08T20:28:53.989Z,97581.19
2022-10-08T20:31:22.998Z,97585.25
2022-10-08T20:33:56.621Z,97586.25
2022-10-08T20:36:24.207Z,97586.94
2022-10-08T20:38:50.846Z,97582.78
2022-10-08T20:41:17.783Z,97587.03
2022-10-08T20:43:44.364Z,97596.28
2022-10-08T20:46:13.141Z,97601.59
2022-10-08T20:48:42.187Z,97596.88
2022-10-08T20:51:20.755Z,97599.13
2022-10-08T20:53:51.996Z,97594.50
2022-10-08T20:56:19.148Z,97596.75
2022-10-08T20:58:45.848Z,97593.16
2022-10-08T21:01:15.797Z,97593.06
2022-10-08T21:03:44.320Z,97588.03
2022-10-08T21:06:13.956Z,97590.88
2022-10-08T21:08:42.827Z,97590.28
2022-10-08T21:11:14.024Z,97590.47
2022-10-08T21:13:41.092Z,97581.63
2022-10-08T21:16:14.226Z,97581.63
2022-10-08T21:18:41.375Z,97591.81
2022-10-08T21:21:10.634Z,97582.38
2022-10-08T21:23:37.539Z,97582.16
2022-10-08T21:26:07.273Z,97575.44
2022-10-08T21:28:34.239Z,97586.44
2022-10-08T21:31:04.159Z,97579.03
2022-10-08T21:33:34.182Z,97580.72
2022-10-08T21:36:00.910Z,97587.81
2022-10-08T21:38:27.469Z,97574.78
2022-10-08T21:40:55.854Z,97575.91
2022-10-08T21:43:22.573Z,97567.81
2022-10-08T21:46:00.623Z,97574.56
2022-10-08T21:48:28.702Z,97572.22
2022-10-08T21:51:06.993Z,97573.44
2022-10-08T21:53:35.480Z,97569.84
2022-10-08T21:56:05.445Z,97573.22
2022-10-08T21:58:36.935Z,97575.34
2022-10-08T22:01:04.350Z,97572.56
2022-10-08T22:03:30.913Z,97569.97
2022-10-08T22:06:00.651Z,97568.47
2022-10-08T22:08:29.201Z,97566.69
2022-10-08T22:10:56.575Z,97571.06
2022-10-08T22:13:23.386Z,97554.31
2022-10-08T22:15:54.796Z,97562.06
2022-10-08T22:18:22.727Z,97562.81
2022-10-08T22:20:49.539Z,97562.25
2022-10-08T22:23:16.556Z,97564.72
2022-10-08T22:25:51.383Z,97563.13
2022-10-08T22:28:17.964Z,97557.53
2022-10-08T22:30:44.586Z,97565.00
2022-10-08T22:33:11.227Z,97561.69
2022-10-08T22:35:37.785Z,97554.84
2022-10-08T22:38:04.667Z,97549.34
2022-10-08T22:40:31.337Z,97545.41
2022-10-08T22:42:57.869Z,97540.63
2022-10-08T22:45:24.475Z,97534.50
2022-10-08T22:47:51.488Z,97534.16
2022-10-08T22:50:18.543Z,97545.59
2022-10-08T22:52:47.274Z,97551.31
2022-10-08T22:55:17.067Z,97547.69
2022-10-08T22:57:44.204Z,97548.13
2022-10-08T23:00:11.894Z,97553.47
2022-10-08T23:02:38.566Z,97555.06
2022-10-08T23:05:05.606Z,97554.16
2022-10-08T23:07:32.121Z,97556.63
2022-10-08T23:09:58.754Z,97559.88
2022-10-08T23:12:25.296Z,97550.66
2022-10-08T23:14:51.894Z,97561.69
2022-10-08T23:17:18.511Z,97561.69
2022-10-08T23:19:45.082Z,97560.66
2022-10-08T23:22:11.669Z,97559.53
2022-10-08T23:24:38.211Z,97565.25
2022-10-08T23:27:09.353Z,97564.41
2022-10-08T23:29:36.206Z,97570.06
2022-10-08T23:32:02.806Z,97571.22
2022-10-08T23:34:29.424Z,97566.66
2022-10-08T23:36:55.953Z,97571.72
2022-10-08T23:39:22.578Z,97575.75
2022-10-08T23:41:49.122Z,97574.81
2022-10-08T23:44:15.688Z,97570.53
2022-10-08T23:46:42.212Z,97591.72
2022-10-08T23:49:08.946Z,97587.00
2022-10-08T23:51:36.041Z,97582.47
2022-10-08T23:54:02.595Z,97581.94
2022-10-08T23:56:29.600Z,97585.09
2022-10-08T23:58:56.486Z,97583.53
